Time;durP1;ratioP1;P1;durP2;ratioP2;P2;SDS_P1;SDS_P2;PMS_P1;PMS_P2;Temp;Humidity;BMP_temperature;BMP_pressure;BME280_temperature;BME280_humidity;BME280_pressure;Samples;Min_cycle;Max_cycle;Signal;HPM_P1;HPM_P2
2021/03/31 00:01:10;;;;;;;483.47;401.93;;;;;;;12.82;49.41;99732.94;5036118;28;20033;-69
2021/03/31 00:03:36;;;;;;;478.77;392.10;;;;;;;12.80;49.17;99729.53;5036924;28;20025;-69
2021/03/31 00:06:01;;;;;;;478.30;385.37;;;;;;;12.99;48.53;99735.34;5040186;28;20029;-69
2021/03/31 00:08:26;;;;;;;477.20;386.77;;;;;;;12.90;48.58;99725.13;5035304;28;20076;-69
2021/03/31 00:10:53;;;;;;;481.20;402.07;;;;;;;12.82;49.10;99724.38;5037796;28;20033;-69
2021/03/31 00:13:22;;;;;;;473.20;371.70;;;;;;;12.75;49.61;99728.72;5036735;28;20044;-69
2021/03/31 00:15:48;;;;;;;476.17;373.93;;;;;;;12.75;48.98;99721.00;5038806;28;20274;-69
2021/03/31 00:18:16;;;;;;;454.33;345.43;;;;;;;12.88;48.55;99719.16;5039511;28;20034;-69
2021/03/31 00:20:42;;;;;;;470.97;382.00;;;;;;;13.01;48.66;99717.31;5041286;28;20044;-69
2021/03/31 00:23:10;;;;;;;472.47;381.60;;;;;;;12.96;48.46;99707.06;5038439;28;20033;-69
2021/03/31 00:25:37;;;;;;;471.10;379.30;;;;;;;13.01;48.15;99715.59;5040039;28;20252;-70
2021/03/31 00:28:03;;;;;;;466.80;364.53;;;;;;;12.90;48.51;99708.88;5039168;28;20029;-69
2021/03/31 00:30:28;;;;;;;472.53;380.03;;;;;;;12.63;49.41;99687.69;5036843;28;20382;-70
2021/03/31 00:32:54;;;;;;;470.63;373.50;;;;;;;12.68;49.59;99705.66;5037833;28;20029;-70
2021/03/31 00:35:20;;;;;;;471.07;379.73;;;;;;;12.54;49.51;99705.78;5038710;28;20170;-70
2021/03/31 00:37:45;;;;;;;474.17;382.97;;;;;;;12.43;49.93;99705.06;5035023;28;20029;-70
2021/03/31 00:40:14;;;;;;;475.23;385.67;;;;;;;12.29;50.38;99705.16;5040355;28;20077;-69
2021/03/31 00:42:44;;;;;;;473.40;373.23;;;;;;;12.22;50.45;99692.38;5039458;28;20043;-70
2021/03/31 00:45:10;;;;;;;477.87;384.23;;;;;;;12.16;50.85;99695.84;5038187;28;20155;-69
2021/03/31 00:47:36;;;;;;;476.77;379.90;;;;;;;12.10;51.29;99695.03;5038692;28;20025;-69
2021/03/31 00:50:03;;;;;;;477.30;366.77;;;;;;;12.11;50.80;99696.75;5037502;28;20103;-68
2021/03/31 00:52:29;;;;;;;477.10;382.10;;;;;;;12.05;50.95;99696.81;5040900;28;20252;-69
2021/03/31 00:54:54;;;;;;;471.57;361.10;;;;;;;12.03;51.17;99695.97;5034006;28;20036;-69
2021/03/31 00:57:20;;;;;;;474.33;368.67;;;;;;;11.92;51.52;99701.19;5036804;28;20414;-69
2021/03/31 00:59:46;;;;;;;470.20;360.57;;;;;;;11.85;51.25;99696.94;5033582;28;20423;-69
2021/03/31 01:02:11;;;;;;;473.30;361.90;;;;;;;11.74;51.61;99691.88;5035123;28;20028;-69
2021/03/31 01:04:37;;;;;;;478.40;371.70;;;;;;;11.83;51.23;99689.25;5034362;28;20029;-69
2021/03/31 01:07:02;;;;;;;468.70;351.63;;;;;;;11.79;51.84;99692.72;5036775;28;20033;-69
2021/03/31 01:09:28;;;;;;;472.90;359.70;;;;;;;11.78;51.46;99696.13;5037710;28;20026;-68
2021/03/31 01:12:21;;;;;;;470.07;353.93;;;;;;;11.99;51.70;99691.72;5035497;28;20075;-69
2021/03/31 01:14:55;;;;;;;472.30;354.87;;;;;;;12.08;51.07;99686.50;5034100;28;20068;-69
2021/03/31 01:17:29;;;;;;;470.00;341.40;;;;;;;12.06;50.92;99690.78;5037789;28;20033;-69
2021/03/31 01:20:22;;;;;;;471.10;345.13;;;;;;;12.12;50.98;99694.16;5038434;28;20451;-69
2021/03/31 01:23:09;;;;;;;464.90;332.77;;;;;;;12.13;50.82;99688.19;5038103;28;20103;-69
2021/03/31 01:25:46;;;;;;;469.63;347.57;;;;;;;12.20;50.24;99691.53;5034642;28;20104;-69
2021/03/31 01:28:26;;;;;;;466.30;336.30;;;;;;;12.20;50.55;99683.81;5039485;28;20089;-68
2021/03/31 01:31:02;;;;;;;466.27;341.70;;;;;;;12.07;50.54;99680.50;5037582;28;20029;-68
2021/03/31 01:33:55;;;;;;;466.23;334.80;;;;;;;11.82;51.94;99684.97;5038349;28;20021;-69
2021/03/31 01:36:22;;;;;;;468.00;340.17;;;;;;;11.70;51.84;99681.59;5037458;28;20184;-69
2021/03/31 01:38:54;;;;;;;469.33;346.63;;;;;;;11.65;51.93;99679.06;5033858;28;20096;-69
2021/03/31 01:41:20;;;;;;;467.13;333.90;;;;;;;11.54;52.74;99687.72;5038847;28;20029;-69
2021/03/31 01:43:52;;;;;;;464.03;330.93;;;;;;;11.35;53.44;99689.50;5038431;28;20045;-69
2021/03/31 01:46:21;;;;;;;464.97;336.73;;;;;;;11.19;53.46;99693.03;5036653;28;20040;-69
2021/03/31 01:48:47;;;;;;;469.63;351.63;;;;;;;11.06;54.06;99691.38;5038134;28;20036;-69
2021/03/31 01:51:15;;;;;;;471.63;350.60;;;;;;;10.90;54.16;99685.44;5036062;28;20371;-69
2021/03/31 01:53:41;;;;;;;464.73;333.83;;;;;;;10.80;54.85;99686.31;5035360;28;20115;-68
2021/03/31 01:56:07;;;;;;;467.33;330.43;;;;;;;10.67;55.15;99685.50;5031412;28;20291;-69
2021/03/31 01:58:35;;;;;;;462.90;320.77;;;;;;;10.55;55.60;99688.09;5038069;28;20045;-68
2021/03/31 02:01:00;;;;;;;463.43;322.73;;;;;;;10.43;56.02;99685.56;5036959;28;20060;-69
2021/03/31 02:03:29;;;;;;;462.50;319.00;;;;;;;10.36;56.69;99683.84;5034512;28;20037;-68
2021/03/31 02:05:56;;;;;;;464.30;325.63;;;;;;;10.21;57.09;99679.59;5036930;28;20116;-68
2021/03/31 02:08:22;;;;;;;460.47;315.57;;;;;;;10.16;57.28;99683.00;5035494;28;20040;-68
2021/03/31 02:10:49;;;;;;;462.80;312.60;;;;;;;10.09;57.34;99692.38;5037573;28;20328;-68
2021/03/31 02:13:15;;;;;;;462.87;308.07;;;;;;;10.06;57.39;99684.69;5033008;28;20514;-66
2021/03/31 02:15:41;;;;;;;461.17;311.80;;;;;;;9.94;57.69;99667.59;5039232;28;20362;-68
2021/03/31 02:18:14;;;;;;;458.50;304.27;;;;;;;9.93;57.88;99683.81;5035975;28;20306;-69
2021/03/31 02:20:40;;;;;;;462.97;298.83;;;;;;;9.87;58.09;99683.84;5035035;28;20621;-73
2021/03/31 02:23:06;;;;;;;457.13;295.53;;;;;;;10.06;57.29;99674.44;5039331;28;20354;-73
2021/03/31 02:25:32;;;;;;;451.70;279.33;;;;;;;9.97;57.91;99675.28;5046344;28;20020;-72
2021/03/31 02:27:59;;;;;;;453.33;289.13;;;;;;;10.43;55.74;99665.91;5042167;28;20264;-72
2021/03/31 02:30:26;;;;;;;451.47;274.67;;;;;;;10.86;54.58;99682.00;5040020;28;20275;-72
2021/03/31 02:32:57;;;;;;;453.53;288.67;;;;;;;11.14;53.44;99674.22;5042115;28;20536;-71
2021/03/31 02:35:23;;;;;;;452.93;287.23;;;;;;;11.30;52.99;99679.25;5040324;28;20260;-72
2021/03/31 02:37:56;;;;;;;453.57;297.13;;;;;;;11.39;52.58;99663.81;5042231;28;20307;-72
2021/03/31 02:40:23;;;;;;;448.57;283.70;;;;;;;11.50;52.51;99674.00;5038344;28;20344;-71
2021/03/31 02:42:50;;;;;;;455.23;297.10;;;;;;;11.46;52.73;99675.75;5039666;28;20282;-72
2021/03/31 02:45:18;;;;;;;466.50;314.90;;;;;;;11.63;51.38;99682.50;5038093;28;20272;-70
2021/03/31 02:47:45;;;;;;;469.00;323.37;;;;;;;11.60;51.57;99678.25;5040181;28;20271;-70
2021/03/31 02:50:17;;;;;;;469.00;326.57;;;;;;;11.72;51.18;99673.03;5040752;28;20044;-70
2021/03/31 02:52:48;;;;;;;463.03;312.90;;;;;;;11.87;50.72;99674.66;5040335;28;20282;-70
2021/03/31 02:55:14;;;;;;;459.47;312.70;;;;;;;11.79;50.89;99651.59;5038898;28;20037;-70
2021/03/31 02:57:41;;;;;;;459.10;311.70;;;;;;;11.87;51.26;99662.69;5037197;28;20653;-70
2021/03/31 03:00:09;;;;;;;461.20;312.57;;;;;;;11.66;52.50;99669.66;5039124;28;20646;-71
2021/03/31 03:02:39;;;;;;;457.53;309.47;;;;;;;11.41;52.37;99669.78;5036733;28;20264;-70
2021/03/31 03:05:06;;;;;;;459.10;321.97;;;;;;;11.36;52.96;99665.56;5040603;28;20367;-70
2021/03/31 03:07:36;;;;;;;459.23;310.20;;;;;;;11.40;52.25;99664.69;5036856;28;20351;-70
2021/03/31 03:10:02;;;;;;;461.43;323.23;;;;;;;11.44;51.94;99664.66;5039892;28;20271;-71
2021/03/31 03:12:29;;;;;;;458.83;302.13;;;;;;;11.47;52.05;99663.75;5037727;28;20965;-71
2021/03/31 03:14:55;;;;;;;460.50;305.37;;;;;;;11.38;51.92;99666.38;5040519;28;20280;-69
2021/03/31 03:17:21;;;;;;;459.80;302.00;;;;;;;11.38;52.45;99662.09;5037206;28;20060;-71
2021/03/31 03:19:47;;;;;;;460.17;300.97;;;;;;;11.30;53.06;99663.88;5040040;28;20292;-77
2021/03/31 03:22:13;;;;;;;461.53;324.07;;;;;;;11.17;53.45;99656.22;5041822;28;20084;-70
2021/03/31 03:24:44;;;;;;;461.37;313.23;;;;;;;11.19;53.46;99668.22;5039695;28;20108;-72
2021/03/31 03:27:14;;;;;;;458.90;306.10;;;;;;;11.02;54.19;99661.44;5039141;28;20379;-69
2021/03/31 03:29:46;;;;;;;459.77;308.50;;;;;;;10.95;54.12;99665.72;5038079;28;20661;-70
2021/03/31 03:32:13;;;;;;;458.20;301.83;;;;;;;10.87;54.84;99654.66;5037945;28;20280;-69
2021/03/31 03:34:40;;;;;;;459.07;304.87;;;;;;;10.81;54.13;99664.94;5035675;28;20323;-69
2021/03/31 03:37:05;;;;;;;457.40;297.43;;;;;;;10.67;55.18;99656.44;5036180;28;20278;-69
2021/03/31 03:39:31;;;;;;;458.10;310.27;;;;;;;10.53;55.86;99659.03;5036105;28;20772;-69
2021/03/31 03:41:57;;;;;;;458.63;287.73;;;;;;;10.41;56.17;99662.47;5037127;28;20065;-69
2021/03/31 03:44:23;;;;;;;455.40;305.53;;;;;;;10.46;55.46;99668.47;5037003;28;20398;-69
2021/03/31 03:46:52;;;;;;;455.80;292.60;;;;;;;10.29;55.94;99644.56;5036596;28;20029;-70
2021/03/31 03:49:18;;;;;;;457.63;291.40;;;;;;;10.27;56.61;99659.06;5045318;28;20107;-69
2021/03/31 03:51:44;;;;;;;452.93;289.53;;;;;;;10.13;57.16;99655.66;5037101;28;20271;-69
2021/03/31 03:54:10;;;;;;;453.73;279.37;;;;;;;9.98;57.71;99659.06;5035463;28;20183;-69
2021/03/31 03:56:36;;;;;;;452.47;282.63;;;;;;;9.84;58.39;99665.06;5039396;28;20339;-70
2021/03/31 03:59:17;;;;;;;451.70;277.90;;;;;;;9.79;57.95;99654.81;5036673;28;20057;-68
2021/03/31 04:01:43;;;;;;;453.03;278.83;;;;;;;9.70;58.64;99657.34;5039105;28;20326;-69
2021/03/31 04:04:08;;;;;;;452.57;279.17;;;;;;;9.66;58.23;99659.91;5040474;28;20314;-69
2021/03/31 04:06:33;;;;;;;451.87;276.30;;;;;;;9.52;58.57;99635.16;5041822;28;20030;-70
2021/03/31 04:08:59;;;;;;;447.83;266.80;;;;;;;9.59;59.50;99654.78;5040938;28;20378;-71
2021/03/31 04:11:25;;;;;;;448.23;264.00;;;;;;;9.48;59.06;99653.91;5040710;28;20036;-68
2021/03/31 04:13:51;;;;;;;445.53;259.20;;;;;;;9.41;59.41;99659.03;5040596;28;20375;-69
2021/03/31 04:16:17;;;;;;;449.00;255.47;;;;;;;9.35;59.80;99657.28;5036470;28;20313;-68
2021/03/31 04:18:45;;;;;;;447.20;256.33;;;;;;;9.30;60.13;99648.75;5037963;28;20289;-68
2021/03/31 04:21:13;;;;;;;453.10;265.43;;;;;;;9.16;60.46;99658.94;5036580;28;20268;-68
2021/03/31 04:23:38;;;;;;;447.77;260.60;;;;;;;9.07;60.76;99658.06;5031462;28;20664;-70
2021/03/31 04:26:04;;;;;;;445.93;254.80;;;;;;;9.01;61.09;99663.16;5037230;28;20286;-70
2021/03/31 04:28:30;;;;;;;453.17;258.93;;;;;;;8.95;61.58;99664.00;5036140;28;20029;-70
2021/03/31 04:30:57;;;;;;;449.37;261.63;;;;;;;9.03;61.70;99670.00;5036655;28;20352;-68
2021/03/31 04:33:24;;;;;;;450.80;258.20;;;;;;;8.96;61.86;99673.38;5037847;28;20316;-69
2021/03/31 04:35:52;;;;;;;448.17;246.37;;;;;;;8.88;62.19;99651.16;5037974;28;20337;-69
2021/03/31 04:38:18;;;;;;;444.47;246.77;;;;;;;8.95;62.29;99675.94;5033295;28;20288;-70
2021/03/31 04:40:58;;;;;;;444.27;238.53;;;;;;;8.86;62.11;99676.75;5035926;28;20263;-69
2021/03/31 04:43:27;;;;;;;447.57;242.90;;;;;;;8.82;62.15;99675.03;5034984;28;20087;-69
2021/03/31 04:46:01;;;;;;;441.83;230.93;;;;;;;8.85;62.41;99677.59;5035740;28;20360;-68
2021/03/31 04:48:26;;;;;;;445.07;234.83;;;;;;;8.82;62.98;99680.13;5036062;28;20510;-70
2021/03/31 04:50:52;;;;;;;441.63;229.47;;;;;;;8.84;62.38;99673.31;5037923;28;20272;-68
2021/03/31 04:53:18;;;;;;;440.50;229.17;;;;;;;8.79;62.31;99680.09;5036310;28;20025;-69
2021/03/31 04:55:43;;;;;;;449.87;236.90;;;;;;;8.77;62.49;99679.25;5034924;28;20397;-70
2021/03/31 04:58:09;;;;;;;445.83;241.57;;;;;;;8.78;62.06;99680.13;5033900;28;20128;-68
2021/03/31 05:00:34;;;;;;;442.70;231.40;;;;;;;8.81;62.17;99683.53;5035422;28;20044;-69
2021/03/31 05:03:00;;;;;;;439.97;230.93;;;;;;;8.85;62.28;99681.84;5040097;28;20117;-70
2021/03/31 05:05:26;;;;;;;444.20;238.90;;;;;;;8.90;61.90;99681.03;5038658;28;20041;-69
2021/03/31 05:07:51;;;;;;;440.10;232.60;;;;;;;8.94;61.87;99680.19;5033317;28;20393;-69
2021/03/31 05:10:17;;;;;;;444.57;238.47;;;;;;;9.01;61.87;99674.25;5036042;28;20041;-69
2021/03/31 05:12:42;;;;;;;438.23;229.13;;;;;;;9.15;61.56;99682.84;5041924;28;20033;-69
2021/03/31 05:15:08;;;;;;;443.43;245.70;;;;;;;9.22;61.35;99677.72;5037256;28;20035;-70
2021/03/31 05:17:33;;;;;;;443.97;240.10;;;;;;;9.16;61.48;99664.06;5037306;28;20040;-69
2021/03/31 05:19:59;;;;;;;440.40;238.90;;;;;;;9.33;61.71;99687.16;5037872;28;20083;-69
2021/03/31 05:22:25;;;;;;;441.00;229.37;;;;;;;9.37;61.36;99685.47;5038539;28;20072;-69
2021/03/31 05:24:51;;;;;;;439.27;234.10;;;;;;;9.37;60.47;99663.28;5036920;28;20267;-69
2021/03/31 05:27:17;;;;;;;444.13;246.87;;;;;;;9.64;59.70;99680.38;5034258;28;20571;-68
2021/03/31 05:29:42;;;;;;;444.37;248.67;;;;;;;9.77;60.05;99682.09;5037486;28;20341;-71
2021/03/31 05:32:08;;;;;;;440.20;240.17;;;;;;;9.87;59.39;99682.97;5037984;28;20088;-72
2021/03/31 05:34:33;;;;;;;445.20;254.30;;;;;;;9.97;59.55;99679.59;5036090;28;20025;-72
2021/03/31 05:36:59;;;;;;;443.10;253.43;;;;;;;10.10;58.85;99681.25;5038271;28;20033;-70
2021/03/31 05:39:24;;;;;;;443.43;249.57;;;;;;;10.17;58.78;99684.72;5038949;28;20032;-72
2021/03/31 05:41:50;;;;;;;439.23;249.13;;;;;;;10.28;58.80;99680.44;5035896;28;20064;-72
2021/03/31 05:44:15;;;;;;;439.63;250.13;;;;;;;10.39;57.91;99694.09;5051024;28;20026;-73
2021/03/31 05:46:42;;;;;;;442.33;253.67;;;;;;;10.50;57.57;99690.66;5033750;28;20041;-68
2021/03/31 05:49:07;;;;;;;440.13;262.60;;;;;;;10.67;57.36;99692.34;5038100;28;20029;-66
2021/03/31 05:51:33;;;;;;;438.70;263.33;;;;;;;10.80;57.30;99694.00;5037594;28;20632;-69
2021/03/31 05:53:58;;;;;;;445.20;272.03;;;;;;;10.93;57.12;99695.69;5037935;28;20025;-68
2021/03/31 05:56:24;;;;;;;453.37;285.03;;;;;;;11.03;56.90;99701.66;5036733;28;20378;-68
2021/03/31 05:58:50;;;;;;;449.03;283.20;;;;;;;11.19;55.77;99700.72;5035984;28;20080;-69
2021/03/31 06:01:16;;;;;;;448.90;285.83;;;;;;;11.29;56.24;99695.53;5035910;28;20037;-68
2021/03/31 06:03:42;;;;;;;449.60;284.40;;;;;;;11.47;55.33;99689.44;5039201;28;20052;-68
2021/03/31 06:06:08;;;;;;;450.43;289.67;;;;;;;11.53;54.97;99675.72;5032703;28;20045;-69
2021/03/31 06:08:34;;;;;;;453.37;296.63;;;;;;;11.73;54.93;99692.75;5031910;28;20037;-69
2021/03/31 06:11:01;;;;;;;461.17;325.10;;;;;;;11.89;54.69;99686.63;5038231;28;20271;-69
2021/03/31 06:13:47;;;;;;;462.03;333.37;;;;;;;12.01;53.61;99684.84;5037859;28;20036;-69
2021/03/31 06:16:28;;;;;;;464.67;333.53;;;;;;;12.18;53.64;99672.69;5036224;28;20294;-68
2021/03/31 06:18:53;;;;;;;463.60;335.43;;;;;;;12.38;53.44;99669.94;5035740;28;20291;-69
2021/03/31 06:21:19;;;;;;;463.80;338.03;;;;;;;12.54;52.70;99666.34;5036112;28;20295;-69
2021/03/31 06:26:20;;;;;;;466.87;353.10;;;;;;;12.92;52.04;99668.50;5036121;28;20040;-69
2021/03/31 06:28:53;;;;;;;463.73;347.97;;;;;;;13.04;51.83;99670.91;5036181;28;20044;-69
2021/03/31 06:31:19;;;;;;;469.27;350.57;;;;;;;13.02;51.77;99662.38;5034733;28;20072;-69
2021/03/31 06:33:45;;;;;;;461.63;352.93;;;;;;;13.03;51.71;99661.47;5035615;28;20052;-69
2021/03/31 06:36:13;;;;;;;463.23;354.17;;;;;;;13.15;51.89;99666.53;5036351;28;20375;-69
2021/03/31 06:38:51;;;;;;;467.23;351.47;;;;;;;13.07;51.50;99656.28;5033595;28;20026;-69
2021/03/31 06:41:33;;;;;;;466.93;367.10;;;;;;;13.18;51.41;99653.63;5033507;28;20029;-69
2021/03/31 06:46:56;;;;;;;468.43;373.20;;;;;;;13.40;50.49;99642.16;5033694;28;20040;-69
2021/03/31 06:49:22;;;;;;;468.60;384.03;;;;;;;13.63;50.06;99650.38;5033975;28;20398;-69
2021/03/31 06:51:47;;;;;;;461.87;359.23;;;;;;;13.69;50.42;99647.72;5032107;28;20036;-69
2021/03/31 06:54:21;;;;;;;465.47;371.37;;;;;;;13.85;49.48;99643.19;5034341;28;20100;-69
2021/03/31 06:56:55;;;;;;;463.80;369.77;;;;;;;14.00;49.37;99642.09;5034564;28;20056;-69
2021/03/31 06:59:31;;;;;;;465.57;370.67;;;;;;;14.19;48.94;99643.47;5045293;28;20394;-69
2021/03/31 07:01:57;;;;;;;465.87;385.30;;;;;;;14.44;48.03;99636.16;5037854;28;20034;-69
2021/03/31 07:04:24;;;;;;;467.10;385.23;;;;;;;14.57;47.56;99643.66;5035638;28;20414;-69
2021/03/31 07:07:08;;;;;;;475.00;403.97;;;;;;;14.76;48.02;99645.91;5041855;28;20037;-69
2021/03/31 07:09:36;;;;;;;472.27;407.83;;;;;;;14.84;47.24;99646.59;5039613;28;20025;-69
2021/03/31 07:12:01;;;;;;;473.20;413.33;;;;;;;14.86;47.20;99630.19;5040765;28;20024;-69
2021/03/31 07:14:28;;;;;;;479.17;420.07;;;;;;;15.06;46.63;99640.13;5042740;28;20037;-69
2021/03/31 07:16:54;;;;;;;477.67;424.80;;;;;;;15.24;46.52;99631.09;5035312;28;20052;-69
2021/03/31 07:19:21;;;;;;;490.13;436.90;;;;;;;15.49;46.02;99634.84;5037058;28;20021;-69
2021/03/31 07:21:48;;;;;;;503.00;449.40;;;;;;;15.48;45.89;99635.75;5037734;28;20025;-69
2021/03/31 07:24:15;;;;;;;503.60;449.80;;;;;;;15.42;45.82;99630.69;5042730;28;20061;-69
2021/03/31 07:26:44;;;;;;;495.53;442.47;;;;;;;15.79;45.07;99628.13;5036352;28;20025;-69
2021/03/31 07:29:11;;;;;;;511.37;457.83;;;;;;;15.95;44.33;99632.91;5038053;28;20021;-69
2021/03/31 07:31:42;;;;;;;516.10;462.33;;;;;;;16.14;44.33;99630.72;5040386;28;20382;-69
2021/03/31 07:34:18;;;;;;;518.23;464.47;;;;;;;16.38;44.38;99626.63;5038912;28;20049;-67
2021/03/31 07:36:47;;;;;;;531.57;477.70;;;;;;;16.55;43.70;99621.03;5048650;28;20052;-68
2021/03/31 07:39:16;;;;;;;543.03;488.87;;;;;;;16.76;43.35;99620.47;5042502;28;20335;-68
2021/03/31 07:41:43;;;;;;;554.37;499.43;;;;;;;16.88;42.97;99633.91;5041150;28;20471;-68
2021/03/31 07:44:16;;;;;;;547.43;492.97;;;;;;;16.94;41.85;99612.16;5039139;28;20029;-68
2021/03/31 07:46:44;;;;;;;572.30;516.90;;;;;;;17.13;41.16;99612.47;5035536;28;20378;-67
2021/03/31 07:49:11;;;;;;;565.43;510.83;;;;;;;17.34;40.98;99617.00;5044469;28;20029;-68
2021/03/31 07:51:36;;;;;;;575.13;520.27;;;;;;;17.46;40.36;99613.19;5040793;28;20048;-68
2021/03/31 07:54:03;;;;;;;579.30;524.20;;;;;;;17.57;39.86;99614.53;5036294;28;20025;-68
2021/03/31 07:56:38;;;;;;;592.17;537.17;;;;;;;17.64;39.69;99612.63;5037731;28;20021;-68
2021/03/31 07:59:04;;;;;;;;;;;;;;;17.77;39.42;99606.16;5035605;28;20099;-68
2021/03/31 08:01:34;;;;;;;593.20;538.00;;;;;;;17.81;39.34;99599.97;5036455;28;19917;-68
2021/03/31 08:04:02;;;;;;;613.33;557.67;;;;;;;17.93;39.07;99612.53;5036827;28;20029;-68
2021/03/31 08:06:31;;;;;;;612.10;556.30;;;;;;;18.05;38.83;99612.13;5036318;28;20386;-69
2021/03/31 08:09:04;;;;;;;624.53;568.47;;;;;;;18.22;38.90;99611.56;5036424;28;20021;-68
2021/03/31 08:11:39;;;;;;;619.27;563.13;;;;;;;18.33;39.00;99613.78;5026313;28;20274;-68
2021/03/31 08:14:06;;;;;;;634.10;577.83;;;;;;;18.36;39.19;99605.91;5037944;28;20054;-68
2021/03/31 08:16:37;;;;;;;626.50;570.83;;;;;;;18.49;38.78;99610.59;5037046;28;20111;-68
2021/03/31 08:19:15;;;;;;;627.07;570.97;;;;;;;18.59;38.50;99593.81;5036640;28;20053;-69
2021/03/31 08:21:41;;;;;;;641.93;585.77;;;;;;;18.81;38.25;99606.88;5037194;28;20033;-69
2021/03/31 08:24:07;;;;;;;649.07;592.97;;;;;;;18.72;38.29;99602.00;5039486;28;20035;-69
2021/03/31 08:26:45;;;;;;;648.37;592.40;;;;;;;18.88;38.26;99592.78;5036640;28;20038;-67
2021/03/31 08:29:30;;;;;;;650.57;594.37;;;;;;;19.07;37.57;99598.94;5039253;28;20025;-67
2021/03/31 08:31:57;;;;;;;;;;;;;;;18.93;37.15;99592.56;5036343;28;20083;-67
2021/03/31 08:34:23;;;;;;;656.27;599.80;;;;;;;19.04;36.40;99596.47;5046961;28;20114;-65
2021/03/31 08:36:50;;;;;;;647.87;591.60;;;;;;;19.20;37.07;99594.13;5038414;28;20029;-67
2021/03/31 08:39:15;;;;;;;676.20;619.53;;;;;;;19.14;37.21;99578.75;5038607;28;20026;-68
2021/03/31 08:41:55;;;;;;;667.07;610.53;;;;;;;19.36;36.67;99586.56;5035217;28;20453;-67
2021/03/31 08:44:33;;;;;;;678.87;621.67;;;;;;;19.35;36.70;99584.91;5041546;28;20029;-67
2021/03/31 08:47:13;;;;;;;666.53;610.07;;;;;;;19.33;36.31;99571.09;5035158;28;20046;-68
2021/03/31 08:49:40;;;;;;;691.17;633.67;;;;;;;19.49;36.58;99578.25;5039341;28;20294;-68
2021/03/31 08:52:07;;;;;;;686.07;629.27;;;;;;;19.71;37.01;99580.00;5039355;28;20398;-69
2021/03/31 08:54:41;;;;;;;669.27;612.93;;;;;;;19.77;37.57;99579.75;5038312;28;20040;-67
2021/03/31 08:57:12;;;;;;;682.37;625.17;;;;;;;19.81;36.77;99576.13;5037137;28;20025;-67
2021/03/31 08:59:40;;;;;;;700.37;642.93;;;;;;;19.75;37.09;99569.41;5027541;28;20052;-67
2021/03/31 09:02:05;;;;;;;691.23;634.17;;;;;;;19.80;36.24;99574.41;5039716;28;20037;-67
2021/03/31 09:04:31;;;;;;;697.97;640.80;;;;;;;19.91;36.70;99580.00;5038651;28;20306;-67
2021/03/31 09:06:59;;;;;;;696.43;639.27;;;;;;;20.16;37.55;99564.19;5036842;28;20059;-68
2021/03/31 09:09:32;;;;;;;712.13;654.47;;;;;;;20.27;36.93;99573.25;5036452;28;20383;-68
2021/03/31 09:12:02;;;;;;;716.73;658.90;;;;;;;20.32;36.82;99567.88;5035375;28;20313;-68
2021/03/31 09:14:28;;;;;;;708.50;651.17;;;;;;;20.33;37.26;99566.94;5036527;28;20137;-70
2021/03/31 09:16:58;;;;;;;728.87;670.93;;;;;;;20.42;37.76;99561.34;5035184;28;20087;-70
2021/03/31 09:19:26;;;;;;;729.23;671.57;;;;;;;20.58;36.43;99562.34;5037316;28;20033;-70
2021/03/31 09:21:52;;;;;;;728.77;670.43;;;;;;;20.59;36.21;99543.19;5034280;28;20041;-68
2021/03/31 09:24:23;;;;;;;740.00;681.70;;;;;;;20.81;35.53;99550.88;5035147;28;20033;-69
2021/03/31 09:26:55;;;;;;;739.83;681.37;;;;;;;20.87;36.23;99550.63;5037651;28;20037;-71
2021/03/31 09:29:22;;;;;;;732.97;674.97;;;;;;;20.87;36.72;99545.41;5035752;28;20208;-69
2021/03/31 09:31:48;;;;;;;765.63;705.73;;;;;;;20.76;36.77;99545.88;5038202;28;20060;-69
2021/03/31 09:34:14;;;;;;;772.30;712.50;;;;;;;20.81;37.44;99536.09;5039551;28;20029;-67
2021/03/31 09:36:40;;;;;;;778.80;719.27;;;;;;;20.91;36.77;99537.38;5039576;28;20037;-67
2021/03/31 09:39:06;;;;;;;777.13;717.13;;;;;;;21.04;38.37;99529.81;5040646;28;20132;-67
2021/03/31 09:41:32;;;;;;;782.67;723.17;;;;;;;20.93;38.71;99532.91;5036608;28;20033;-68
2021/03/31 09:43:59;;;;;;;776.43;716.57;;;;;;;21.04;37.16;99524.59;5035550;28;20033;-68
2021/03/31 09:46:29;;;;;;;793.07;733.03;;;;;;;21.13;36.56;99523.38;5037250;28;20509;-68
2021/03/31 09:48:56;;;;;;;801.80;741.40;;;;;;;21.27;37.34;99524.38;5035536;28;20112;-67
2021/03/31 09:51:22;;;;;;;797.73;737.43;;;;;;;21.39;36.82;99521.16;5037205;28;20041;-67
2021/03/31 09:53:49;;;;;;;808.53;747.93;;;;;;;21.42;36.48;99512.38;5038802;28;20337;-67
2021/03/31 09:56:16;;;;;;;801.03;740.67;;;;;;;21.50;36.76;99491.94;5035637;28;20083;-68
2021/03/31 09:58:46;;;;;;;814.73;753.57;;;;;;;21.71;36.09;99511.75;5034189;28;20045;-68
2021/03/31 10:01:13;;;;;;;805.33;744.80;;;;;;;21.65;36.26;99512.06;5035046;28;20116;-68
2021/03/31 10:03:41;;;;;;;816.70;755.80;;;;;;;21.74;37.63;99514.22;5036180;28;20033;-68
2021/03/31 10:06:27;;;;;;;816.70;756.07;;;;;;;21.96;35.78;99511.38;5034000;28;20283;-68
2021/03/31 10:08:53;;;;;;;833.10;771.83;;;;;;;21.97;37.18;99504.41;5036896;28;20378;-68
2021/03/31 10:11:35;;;;;;;822.60;761.90;;;;;;;21.99;36.15;99505.16;5034661;28;20044;-68
2021/03/31 10:14:05;;;;;;;823.23;762.30;;;;;;;21.81;36.17;99496.50;5037567;28;20033;-68
2021/03/31 10:16:38;;;;;;;840.33;778.83;;;;;;;21.95;37.18;99498.41;5035776;28;20171;-68
2021/03/31 10:19:06;;;;;;;827.63;766.47;;;;;;;21.97;36.36;99493.97;5038136;28;20367;-68
2021/03/31 10:21:34;;;;;;;838.17;776.93;;;;;;;21.91;36.11;99497.69;5035345;28;20025;-68
2021/03/31 10:24:01;;;;;;;840.73;779.50;;;;;;;21.81;35.25;99491.25;5035715;28;20391;-70
2021/03/31 10:26:32;;;;;;;838.63;777.40;;;;;;;22.02;34.64;99486.75;5035553;28;20055;-70
2021/03/31 10:29:00;;;;;;;833.77;772.83;;;;;;;21.89;36.01;99483.88;5037588;28;20120;-70
2021/03/31 10:31:27;;;;;;;831.03;769.93;;;;;;;21.77;35.81;99479.25;5042013;28;20108;-70
2021/03/31 10:33:54;;;;;;;841.50;780.50;;;;;;;22.10;35.53;99480.19;5034925;28;20033;-70
2021/03/31 10:36:41;;;;;;;845.17;783.73;;;;;;;22.30;37.25;99468.69;5037619;28;20037;-70
2021/03/31 10:47:20;;;;;;;851.83;790.23;;;;;;;22.43;34.67;99469.72;5043361;28;20079;-68
2021/03/31 10:49:50;;;;;;;848.17;786.47;;;;;;;22.40;35.58;99472.50;5037594;28;20021;-68
2021/03/31 10:52:35;;;;;;;843.90;782.33;;;;;;;22.45;35.19;99461.81;5034996;28;20033;-68
2021/03/31 10:55:00;;;;;;;854.90;793.10;;;;;;;22.47;35.46;99457.31;5040709;28;20021;-68
2021/03/31 10:57:26;;;;;;;854.60;793.07;;;;;;;22.56;34.93;99460.28;5040872;28;20044;-68
2021/03/31 10:59:51;;;;;;;855.33;793.77;;;;;;;22.63;34.67;99450.31;5038831;28;20045;-68
2021/03/31 11:02:16;;;;;;;861.63;799.23;;;;;;;22.65;34.60;99458.94;5047691;28;20374;-70
2021/03/31 11:04:45;;;;;;;856.87;794.83;;;;;;;22.60;35.83;99447.88;5046706;28;20065;-70
2021/03/31 11:07:10;;;;;;;867.43;805.37;;;;;;;22.87;36.46;99445.56;5038710;28;20025;-70
2021/03/31 11:09:40;;;;;;;871.33;809.10;;;;;;;22.90;35.79;99442.75;5041712;28;20028;-71
2021/03/31 11:12:06;;;;;;;864.27;802.10;;;;;;;23.03;34.38;99441.97;5041825;28;20036;-70
2021/03/31 11:14:31;;;;;;;881.07;818.17;;;;;;;23.03;34.69;99444.59;5039366;28;20021;-70
2021/03/31 11:17:03;;;;;;;882.67;819.47;;;;;;;23.05;33.52;99436.66;5038528;28;20051;-71
2021/03/31 11:27:31;;;;;;;887.77;824.43;;;;;;;22.96;34.50;99416.25;5057245;28;20076;-70
2021/03/31 11:29:57;;;;;;;895.17;831.60;;;;;;;23.00;34.99;99418.59;5060062;28;20449;-70
2021/03/31 11:32:24;;;;;;;890.60;827.17;;;;;;;23.18;34.23;99411.47;5059556;28;20037;-70